Terminal Aerodrome Forecast
Issued by NWS Tampa Bay Area, FL

Home | Current Version | Previous Version | Text Only | Print | Product List | Glossary On
Versions: 1 2 3 4 5 6 7 8 9 10 11 12 13 14 15
000
FTUS42 KTBW 281120
TAFFMY
TAF
KFMY 281120Z 2812/2912 06006KT P6SM SCT005 SCT250
     FM281500 08010G15KT P6SM VCTS FEW025CB SCT250
     FM281800 08012G18KT P6SM VCTS BKN035CB BKN100
     FM290100 08010KT P6SM VCSH SCT030 BKN080 OVC150=

USA.gov is the U.S. government's official web portal to all federal, state and local government web resources and services.